Flight Track Log - Related Links

Times and Time Zones

All times are in EDT time to prevent confusion due to time zone crossing. See the RPA3161 flight status page for this flight to view local times or setup timezone preferences in your user account.

Time Position Orientation Groundspeed Altitude Reporting Facility
EDT Latitude Longitude Course Direction KTS MPH feet Rate Location/Type
Wed 12:45:30 PM 44.4769 -73.2925 195° South 232 267 6,600  Level Boston Center
Wed 12:46:30 PM 44.3978 -73.2825 175° South 245 282 10,400 3,500 Climbing Boston Center
Wed 12:47:30 PM 44.3000 -73.2756 177° South 303 349 13,600 3,050 Climbing Boston Center
Wed 12:48:00 PM 43.8687 -73.3681 195° South  Level FlightAware Approximate
Wed 12:48:30 PM 44.2103 -73.3061 194° South 335 386 16,500  Level Boston Center
Wed 12:49:00 PM 43.7689 -73.4055 195° South  Level FlightAware Approximate
Wed 12:49:30 PM 44.1475 -73.3283 194° South 335 386 18,300  Level Boston Center
Wed 12:50:00 PM 43.6692 -73.4428 195° South  Level FlightAware Approximate
Wed 12:50:30 PM 44.0325 -73.3900 201° Southwest 341 392 21,800  Level Boston Center
Wed 12:51:30 PM 43.9444 -73.4436 204° Southwest 351 404 24,200 2,100 Climbing Boston Center
Wed 12:52:30 PM 43.8522 -73.4994 204° Southwest 357 411 26,000 900 Climbing Boston Center
Wed 12:53:30 PM 43.7600 -73.5553 204° Southwest 357 411 26,000  Level Boston Center
Wed 12:54:30 PM 43.6678 -73.6139 205° Southwest 362 417 26,000 300 Level Boston Center
Wed 12:55:30 PM 43.5858 -73.6611 203° Southwest 362 417 26,600 1,000 Climbing Boston Center
Wed 12:56:30 PM 43.4917 -73.7194 204° Southwest 362 417 28,000 700 Climbing Boston Center
Wed 12:57:30 PM 43.3828 -73.7569 194° South 362 417 28,000  Level Boston Center
Wed 12:58:30 PM 43.2803 -73.7892 193° South 368 423 28,000  Level Boston Center
Wed 12:59:30 PM 43.1758 -73.8153 190° South 379 436 28,000  Level Boston Center
Wed 01:00:30 PM 43.0711 -73.8414 190° South 379 436 28,000  Level Boston Center
Wed 01:01:30 PM 42.9708 -73.8675 191° South 379 436 28,000  Level Boston Center
Wed 01:02:30 PM 42.8789 -73.8908 191° South 379 436 28,000  Level Boston Center
Wed 01:03:30 PM 42.7742 -73.9167 190° South 373 429 28,000  Level Boston Center
Wed 01:04:30 PM 42.6697 -73.9422 190° South 378 435 28,000 -100 Level Boston Center
Wed 01:05:30 PM 42.5714 -73.9681 191° South 372 428 27,800  Descending Boston Center
Wed 01:06:30 PM 42.4692 -73.9881 188° South 372 428 28,000 100 Climbing Boston Center
Wed 01:07:30 PM 42.3625 -74.0025 186° South 377 434 28,000  Level Boston Center
Wed 01:08:30 PM 42.2581 -74.0167 186° South 382 440 28,000  Level Boston Center
Wed 01:09:30 PM 42.1556 -74.0419 190° South 387 445 28,000  Level Boston Center
Wed 01:10:30 PM 42.0531 -74.0703 192° South 387 445 28,000  Level Boston Center
Wed 01:11:30 PM 41.9486 -74.0953 190° South 387 445 28,000  Level Boston Center
Wed 01:12:30 PM 41.8481 -74.1233 192° South 382 440 28,000  Level Boston Center
Wed 01:14:37 PM 41.6225 -74.1817 191° South 375 432 28,000  Level New York Center
Wed 01:15:38 PM 41.5175 -74.2122 192° South 381 438 28,000  Level New York Center
Wed 01:16:38 PM 41.4147 -74.2372 190° South 376 433 28,000 -694 Level New York Center
Wed 01:17:39 PM 41.3142 -74.2597 190° South 376 433 26,600 -1,008 Descending New York Center
Wed 01:18:37 PM 41.2133 -74.2875 192° South 376 433 26,000 -305 Descending New York Center
Wed 01:19:37 PM 41.1106 -74.3153 192° South 376 433 26,000  Level New York Center
Wed 01:20:38 PM 41.0117 -74.3431 192° South 376 433 26,000  Level New York Center
Wed 01:21:38 PM 40.9111 -74.3653 189° South 376 433 26,000  Level New York Center
Wed 01:22:37 PM 40.8122 -74.3956 193° South 371 427 26,000  Level New York Center
Wed 01:23:38 PM 40.7342 -74.4900 223° Southwest 362 417 26,000 -347 Level New York Center
Wed 01:24:38 PM 40.6681 -74.6042 233° Southwest 383 441 25,300 -1,220 Descending New York Center
Wed 01:25:36 PM 40.5956 -74.7203 231° Southwest 396 456 23,600 -1,815 Descending New York Center
Wed 01:26:37 PM 40.5189 -74.8333 228° Southwest 415 478 21,700 -1,770 Descending New York Center
Wed 01:27:38 PM 40.4397 -74.9458 227° Southwest 420 483 20,000 -843 Descending New York Center
Wed 01:28:38 PM 40.3650 -75.0531 228° Southwest 420 483 20,000  Level New York Center
Wed 01:29:39 PM 40.2881 -75.1625 227° Southwest 420 483 20,000  Level New York Center
Wed 01:30:39 PM 40.2111 -75.2692 227° Southwest 415 478 20,000  Level New York Center
Wed 01:31:38 PM 40.1339 -75.3781 227° Southwest 415 478 20,000  Level New York Center
Wed 01:32:39 PM 40.0633 -75.4767 227° Southwest 415 478 20,000  Level New York Center
Wed 01:33:37 PM 39.9883 -75.5800 227° Southwest 415 478 20,000  Level New York Center
Wed 01:34:37 PM 39.9153 -75.6858 228° Southwest 410 472 20,000  Level New York Center
Wed 01:35:38 PM 39.8519 -75.8003 234° Southwest 398 458 20,000  Level New York Center
Wed 01:36:39 PM 39.7906 -75.9203 236° Southwest 398 458 20,000 -397 Level New York Center
Wed 01:37:39 PM 39.7494 -76.0469 247° West 388 447 19,200 -1,100 Descending New York Center
Wed 01:38:39 PM 39.7269 -76.1750 257° West 377 434 17,800 -1,465 Descending New York Center
Wed 01:40:31 PM 39.6833 -76.4333 258° West 363 418 15,000 -1,674 Descending Potomac TRACON
Wed 01:41:31 PM 39.6167 -76.5333 229° Southwest 371 427 13,000 -1,429 Descending Potomac TRACON
Wed 01:42:37 PM 39.5000 -76.5667 192° South 365 420 12,000 -500 Descending Potomac TRACON
Wed 01:43:31 PM 39.4167 -76.5833 189° South 364 419 12,000 -574 Level Potomac TRACON
Wed 01:44:32 PM 39.3167 -76.6167 194° South 366 421 10,900 -992 Descending Potomac TRACON
Wed 01:45:32 PM 39.2167 -76.6500 194° South 334 384 10,000 -290 Descending Potomac TRACON
Wed 01:47:38 PM 39.0833 -76.7667 214° Southwest 288 331 10,000 -500 Level Potomac TRACON
Wed 01:48:44 PM 39.0167 -76.8333 218° Southwest 281 323 8,400 -1,619 Descending Potomac TRACON
Wed 01:49:44 PM 38.9667 -76.9000 226° Southwest 277 319 6,600 -1,200 Descending Potomac TRACON
Wed 01:50:44 PM 38.9000 -76.9500 210° Southwest 263 303 6,000 -300 Descending Potomac TRACON
Wed 01:51:44 PM 38.8333 -76.9500 180° South 224 258 6,000 -333 Level Potomac TRACON
Wed 01:53:00 PM 38.8519 -77.0377 180° South  Level Estimated
Wed 01:53:44 PM 38.7333 -76.9333 180° South 192 221 5,000  Level Potomac TRACON
Wed 01:54:45 PM 38.6833 -76.9333 180° South 190 219 4,000 -992 Descending Potomac TRACON
Wed 01:55:45 PM 38.6667 -76.9833 247° West 186 214 3,000 -1,000 Descending Potomac TRACON
Wed 01:56:45 PM 38.6833 -77.0167 303° West 186 214 2,000 -1,000 Descending Potomac TRACON

Login

Don't have an account? Register now (free) for customized features, flight alerts, and more!